createdAt,value
2022-12-29T00:01:53.511Z,0.55
2022-12-29T00:04:20.492Z,2.28
2022-12-29T00:06:47.316Z,0.98
2022-12-29T00:09:14.560Z,0.60
2022-12-29T00:11:42.216Z,0.70
2022-12-29T00:14:31.386Z,0.40
2022-12-29T00:16:58.593Z,1.75
2022-12-29T00:19:44.217Z,0.90
2022-12-29T00:22:31.690Z,0.82
2022-12-29T00:25:17.561Z,1.42
2022-12-29T00:28:07.219Z,0.45
2022-12-29T00:30:55.262Z,0.50
2022-12-29T00:33:45.639Z,1.13
2022-12-29T00:36:29.294Z,0.60
2022-12-29T00:39:30.149Z,0.40
2022-12-29T00:42:15.381Z,0.50
2022-12-29T00:44:42.095Z,1.35
2022-12-29T00:47:08.896Z,0.40
2022-12-29T00:49:35.639Z,0.40
2022-12-29T00:52:08.685Z,0.77
2022-12-29T00:54:38.368Z,0.70
2022-12-29T00:57:08.121Z,0.75
2022-12-29T00:59:39.733Z,0.40
2022-12-29T01:02:07.343Z,1.33
2022-12-29T01:04:34.884Z,0.45
2022-12-29T01:07:01.890Z,1.17
2022-12-29T01:09:47.413Z,0.30
2022-12-29T01:12:14.463Z,0.40
2022-12-29T01:14:41.187Z,1.05
2022-12-29T01:17:08.118Z,0.57
2022-12-29T01:19:34.935Z,0.55
2022-12-29T01:22:01.712Z,0.57
2022-12-29T01:24:28.466Z,0.30
2022-12-29T01:26:55.581Z,0.30
2022-12-29T01:29:23.242Z,1.45
2022-12-29T01:31:51.004Z,0.90
2022-12-29T01:34:18.755Z,1.27
2022-12-29T01:36:45.645Z,0.55
2022-12-29T01:39:12.632Z,0.43
2022-12-29T01:41:39.432Z,2.05
2022-12-29T01:44:48.131Z,0.85
2022-12-29T01:47:40.573Z,0.40
2022-12-29T01:50:13.626Z,0.47
2022-12-29T01:52:52.038Z,0.43
2022-12-29T01:55:19.323Z,2.03
2022-12-29T01:57:50.597Z,1.77
2022-12-29T02:00:18.185Z,1.08
2022-12-29T02:02:52.962Z,2.75
2022-12-29T02:05:28.867Z,1.10
2022-12-29T02:07:55.899Z,1.60
2022-12-29T02:10:25.604Z,1.20
2022-12-29T02:12:53.739Z,1.05
2022-12-29T02:15:32.938Z,0.65
2022-12-29T02:18:05.271Z,3.03
2022-12-29T02:21:12.570Z,3.28
2022-12-29T02:24:22.313Z,2.05
2022-12-29T02:27:22.249Z,1.65
2022-12-29T02:30:30.356Z,2.38
2022-12-29T02:33:08.328Z,1.52
2022-12-29T02:36:02.774Z,1.65
2022-12-29T02:38:54.007Z,0.57
2022-12-29T02:41:32.375Z,3.13
2022-12-29T02:44:32.334Z,3.65
2022-12-29T02:47:23.241Z,3.28
2022-12-29T02:50:19.267Z,1.50
2022-12-29T02:53:38.652Z,0.77
2022-12-29T02:56:05.694Z,1.02
2022-12-29T02:58:32.407Z,3.88
2022-12-29T03:01:23.787Z,2.30
2022-12-29T03:04:17.860Z,0.73
2022-12-29T03:07:24.866Z,1.50
2022-12-29T03:10:23.144Z,1.13
2022-12-29T03:13:49.501Z,1.90
2022-12-29T03:16:32.613Z,1.92
2022-12-29T03:19:24.548Z,1.35
2022-12-29T03:22:15.582Z,1.83
2022-12-29T03:24:49.069Z,0.63
2022-12-29T03:27:21.028Z,1.05
2022-12-29T03:32:24.920Z,0.70
2022-12-29T03:34:52.106Z,2.92
2022-12-29T03:37:26.549Z,2.38
2022-12-29T03:39:53.522Z,1.13
2022-12-29T03:42:26.429Z,2.13
2022-12-29T03:44:57.215Z,1.90
2022-12-29T03:47:25.312Z,1.25
2022-12-29T03:49:53.670Z,1.25
2022-12-29T03:52:20.611Z,1.45
2022-12-29T03:54:47.901Z,0.73
2022-12-29T03:57:14.634Z,0.40
2022-12-29T03:59:41.387Z,0.90
2022-12-29T04:02:08.218Z,1.17
2022-12-29T04:04:35.068Z,0.70
2022-12-29T04:07:01.801Z,0.98
2022-12-29T04:09:28.512Z,1.27
2022-12-29T04:11:55.230Z,0.63
2022-12-29T04:14:21.976Z,0.40
2022-12-29T04:16:48.716Z,0.68
2022-12-29T04:19:15.463Z,2.22
2022-12-29T04:21:42.197Z,0.70
2022-12-29T04:24:09.381Z,1.55
2022-12-29T04:26:36.158Z,1.42
2022-12-29T04:29:02.905Z,1.63
2022-12-29T04:31:29.692Z,2.53
2022-12-29T04:33:58.150Z,1.55
2022-12-29T04:36:29.742Z,1.33
2022-12-29T04:41:23.668Z,1.55
2022-12-29T04:43:50.382Z,3.65
2022-12-29T04:46:17.522Z,1.58
2022-12-29T04:48:45.184Z,0.98
2022-12-29T04:51:11.938Z,1.70
2022-12-29T04:53:38.692Z,3.08
2022-12-29T04:56:05.922Z,2.97
2022-12-29T04:58:32.744Z,1.83
2022-12-29T05:01:00.248Z,1.25
2022-12-29T05:03:27.103Z,1.50
2022-12-29T05:05:58.322Z,3.03
2022-12-29T05:08:28.340Z,2.47
2022-12-29T05:10:55.466Z,2.17
2022-12-29T05:13:22.359Z,1.95
2022-12-29T05:15:54.557Z,1.27
2022-12-29T05:18:21.453Z,1.08
2022-12-29T05:20:48.779Z,1.70
2022-12-29T05:23:16.531Z,0.95
2022-12-29T05:25:46.474Z,1.55
2022-12-29T05:28:14.088Z,2.72
2022-12-29T05:30:41.332Z,1.95
2022-12-29T05:33:08.226Z,1.23
2022-12-29T05:35:35.159Z,4.63
2022-12-29T05:38:01.949Z,2.38
2022-12-29T06:01:01.949Z,1.23
2022-12-29T06:03:28.758Z,1.13
2022-12-29T06:05:55.651Z,3.35
2022-12-29T06:08:22.355Z,2.85
2022-12-29T06:10:49.068Z,1.98
2022-12-29T06:13:15.909Z,5.10
2022-12-29T06:15:44.090Z,2.55
2022-12-29T06:18:16.475Z,3.13
2022-12-29T06:20:46.492Z,2.08
2022-12-29T06:23:14.084Z,2.45
2022-12-29T06:25:41.199Z,2.53
2022-12-29T06:28:08.013Z,1.98
2022-12-29T06:30:34.805Z,4.43
2022-12-29T06:33:01.546Z,3.88
2022-12-29T06:35:28.485Z,2.63
2022-12-29T06:37:55.208Z,3.58
2022-12-29T06:40:22.649Z,2.05
2022-12-29T06:42:49.455Z,2.47
2022-12-29T06:45:16.293Z,3.67
2022-12-29T06:47:44.271Z,2.60
2022-12-29T06:50:11.034Z,5.88
2022-12-29T06:52:37.764Z,1.40
2022-12-29T06:55:05.248Z,2.58
2022-12-29T06:57:32.010Z,1.83
2022-12-29T06:59:58.842Z,2.67
2022-12-29T07:02:28.179Z,3.55
2022-12-29T07:04:54.976Z,5.20
2022-12-29T07:07:21.884Z,3.38
2022-12-29T07:09:48.781Z,6.25
2022-12-29T07:12:15.819Z,5.88
2022-12-29T07:14:43.620Z,5.20
2022-12-29T07:17:10.755Z,4.50
2022-12-29T07:19:37.603Z,4.75
2022-12-29T07:22:04.370Z,3.05
2022-12-29T07:24:31.064Z,8.57
2022-12-29T07:26:58.068Z,5.93
2022-12-29T07:29:25.191Z,4.63
2022-12-29T07:31:52.032Z,5.13
2022-12-29T07:34:18.809Z,8.30
2022-12-29T07:36:45.547Z,4.90
2022-12-29T07:39:12.593Z,3.13
2022-12-29T07:41:39.346Z,3.42
2022-12-29T07:44:06.114Z,4.85
2022-12-29T07:46:56.232Z,6.07
2022-12-29T07:49:19.525Z,5.75
2022-12-29T07:51:46.237Z,3.83
2022-12-29T07:54:13.516Z,3.67
2022-12-29T07:56:40.263Z,4.65
2022-12-29T07:59:07.141Z,8.57
2022-12-29T08:01:33.981Z,2.85
2022-12-29T08:04:00.848Z,3.05
2022-12-29T08:06:27.728Z,4.82
2022-12-29T08:08:54.483Z,4.75
2022-12-29T08:11:21.268Z,7.05
2022-12-29T08:13:48.490Z,5.20
2022-12-29T08:16:15.352Z,6.57
2022-12-29T08:18:42.099Z,7.57
2022-12-29T08:21:08.839Z,6.68
2022-12-29T08:23:35.606Z,5.22
2022-12-29T08:26:07.046Z,4.30
2022-12-29T08:28:34.444Z,5.75
2022-12-29T08:31:02.919Z,7.55
2022-12-29T08:33:30.420Z,4.65
2022-12-29T08:36:06.139Z,5.40
2022-12-29T08:38:33.001Z,4.95
2022-12-29T08:41:01.857Z,6.40
2022-12-29T08:43:29.554Z,6.78
2022-12-29T08:45:57.088Z,4.43
2022-12-29T08:48:24.001Z,5.03
2022-12-29T08:50:51.458Z,5.38
2022-12-29T08:53:19.433Z,6.78
2022-12-29T08:55:47.923Z,6.68
2022-12-29T08:58:15.583Z,7.53
2022-12-29T09:00:43.541Z,6.97
2022-12-29T09:03:10.623Z,9.68
2022-12-29T09:05:37.740Z,6.78
2022-12-29T09:08:05.407Z,6.72
2022-12-29T09:10:32.485Z,5.85
2022-12-29T09:12:59.290Z,5.85
2022-12-29T09:15:26.025Z,8.52
2022-12-29T09:17:52.745Z,4.50
2022-12-29T09:20:20.525Z,6.32
2022-12-29T09:22:48.472Z,3.92
2022-12-29T09:25:15.684Z,6.93
2022-12-29T09:27:42.741Z,7.25
2022-12-29T09:30:13.429Z,6.85
2022-12-29T09:32:44.882Z,4.68
2022-12-29T09:37:39.544Z,6.22
2022-12-29T09:40:08.774Z,5.05
2022-12-29T09:43:36.676Z,8.02
2022-12-29T09:46:25.375Z,5.43
2022-12-29T09:49:10.816Z,7.15
2022-12-29T09:51:40.817Z,10.20
2022-12-29T09:54:39.493Z,7.65
2022-12-29T09:57:16.629Z,11.10
2022-12-29T09:59:46.168Z,9.13
2022-12-29T10:02:51.308Z,7.63
2022-12-29T10:06:04.156Z,8.52
2022-12-29T10:08:33.566Z,5.18
2022-12-29T10:11:07.123Z,7.82
2022-12-29T10:14:15.827Z,4.45
2022-12-29T10:17:26.897Z,5.82
2022-12-29T10:20:29.728Z,12.13
2022-12-29T10:23:26.109Z,10.90
2022-12-29T10:25:57.530Z,4.05
2022-12-29T10:28:49.142Z,6.95
2022-12-29T10:31:25.764Z,8.55
2022-12-29T10:34:01.823Z,5.43
2022-12-29T10:36:41.594Z,7.35
2022-12-29T10:39:29.832Z,10.70
2022-12-29T10:42:37.679Z,12.70
2022-12-29T10:45:06.633Z,9.52
2022-12-29T10:47:39.434Z,8.45
2022-12-29T10:50:06.874Z,7.22
2022-12-29T10:52:34.454Z,7.85
2022-12-29T10:55:09.085Z,6.88
2022-12-29T10:57:46.856Z,8.02
2022-12-29T11:00:21.874Z,5.40
2022-12-29T11:03:11.023Z,8.73
2022-12-29T11:06:19.809Z,7.72
2022-12-29T11:09:16.373Z,8.30
2022-12-29T11:11:43.371Z,10.00
2022-12-29T11:14:27.673Z,7.97
2022-12-29T11:17:03.711Z,8.02
2022-12-29T11:19:37.657Z,9.65
2022-12-29T11:22:31.644Z,9.38
2022-12-29T11:25:11.913Z,8.95
2022-12-29T11:27:38.710Z,6.70
2022-12-29T11:30:25.532Z,8.45
2022-12-29T11:32:58.659Z,6.88
2022-12-29T11:35:43.616Z,4.22
2022-12-29T11:38:23.722Z,7.95
2022-12-29T11:40:50.803Z,8.45
2022-12-29T11:43:34.405Z,7.70
2022-12-29T11:46:04.560Z,5.88
2022-12-29T11:48:40.700Z,7.68
2022-12-29T11:51:08.268Z,6.20
2022-12-29T11:53:48.525Z,5.85
2022-12-29T11:56:20.442Z,9.07
2022-12-29T11:58:50.274Z,9.32
2022-12-29T12:01:22.708Z,8.15
2022-12-29T12:04:16.218Z,8.23
2022-12-29T12:06:54.294Z,6.00
2022-12-29T12:09:30.361Z,10.50
2022-12-29T12:11:59.259Z,5.00
2022-12-29T12:14:36.016Z,9.75
2022-12-29T12:17:12.492Z,10.00
2022-12-29T12:20:06.528Z,3.58
2022-12-29T12:22:43.904Z,7.18
2022-12-29T12:25:30.550Z,6.25
2022-12-29T12:28:21.733Z,7.75
2022-12-29T12:30:54.457Z,9.15
2022-12-29T12:33:31.162Z,8.02
2022-12-29T12:36:35.167Z,4.50
2022-12-29T12:39:27.786Z,7.45
2022-12-29T12:42:22.150Z,7.60
2022-12-29T12:45:38.504Z,9.18
2022-12-29T12:48:50.135Z,5.10
2022-12-29T12:51:38.958Z,9.45
2022-12-29T12:54:45.524Z,5.75
2022-12-29T12:57:46.508Z,8.88
2022-12-29T13:00:18.989Z,7.07
2022-12-29T13:02:55.024Z,8.27
2022-12-29T13:05:48.893Z,5.57
2022-12-29T13:08:41.459Z,5.57
2022-12-29T13:11:46.347Z,6.50
2022-12-29T13:14:31.036Z,9.00
2022-12-29T13:17:28.479Z,6.57
2022-12-29T13:20:45.170Z,10.88
2022-12-29T13:23:51.482Z,11.80
2022-12-29T13:26:48.281Z,16.02
2022-12-29T13:29:34.790Z,22.75
2022-12-29T13:32:28.772Z,12.60
2022-12-29T13:35:27.425Z,19.92
2022-12-29T13:38:08.360Z,15.35
2022-12-29T13:40:41.681Z,7.68
2022-12-29T13:43:10.307Z,11.38
2022-12-29T13:45:37.671Z,7.07
2022-12-29T13:48:48.297Z,8.45
2022-12-29T13:51:16.136Z,7.90
2022-12-29T13:54:06.709Z,7.38
2022-12-29T13:56:52.142Z,6.97
2022-12-29T13:59:51.155Z,7.63
2022-12-29T14:02:51.388Z,5.30
2022-12-29T14:05:21.149Z,8.68
2022-12-29T14:08:05.625Z,7.18
2022-12-29T14:10:39.921Z,6.88
2022-12-29T14:13:14.460Z,7.80
2022-12-29T14:15:45.228Z,5.45
2022-12-29T14:18:20.625Z,7.70
2022-12-29T14:21:06.515Z,5.50
2022-12-29T14:23:42.454Z,5.72
2022-12-29T14:26:35.337Z,5.68
2022-12-29T14:29:39.311Z,10.45
2022-12-29T14:32:27.762Z,5.60
2022-12-29T14:35:00.190Z,8.07
2022-12-29T14:37:39.885Z,9.23
2022-12-29T14:40:20.844Z,7.13
2022-12-29T14:42:49.212Z,4.03
2022-12-29T14:45:15.854Z,6.03
2022-12-29T14:47:46.555Z,9.18
2022-12-29T14:50:44.901Z,5.78
2022-12-29T14:53:44.410Z,2.67
2022-12-29T14:56:13.423Z,7.97
2022-12-29T14:58:54.553Z,13.68
2022-12-29T15:01:44.688Z,5.57
2022-12-29T15:04:36.559Z,8.90
2022-12-29T15:07:08.999Z,6.03
2022-12-29T15:09:41.621Z,7.55
2022-12-29T15:12:24.919Z,6.18
2022-12-29T15:14:56.836Z,5.07
2022-12-29T15:17:35.264Z,4.55
2022-12-29T15:20:23.786Z,6.63
2022-12-29T15:23:03.711Z,8.90
2022-12-29T15:25:32.155Z,7.00
2022-12-29T15:28:04.156Z,9.52
2022-12-29T15:32:58.330Z,8.52
2022-12-29T15:35:36.790Z,3.67
2022-12-29T15:38:40.449Z,7.70
2022-12-29T15:41:59.310Z,6.88
2022-12-29T15:44:36.572Z,8.23
2022-12-29T15:47:25.860Z,9.93
2022-12-29T15:50:00.645Z,3.60
2022-12-29T15:52:29.720Z,7.75
2022-12-29T15:54:56.535Z,14.32
2022-12-29T15:57:33.553Z,5.07
2022-12-29T16:00:01.055Z,4.22
2022-12-29T16:02:28.649Z,8.20
2022-12-29T16:07:54.681Z,4.70
2022-12-29T16:10:40.979Z,7.68
2022-12-29T16:13:27.506Z,10.88
2022-12-29T16:16:02.748Z,5.60
2022-12-29T16:18:36.475Z,5.40
2022-12-29T16:21:17.300Z,11.98
2022-12-29T16:23:48.060Z,9.27
2022-12-29T16:26:20.886Z,7.07
2022-12-29T16:29:09.133Z,7.93
2022-12-29T16:32:01.506Z,7.53
2022-12-29T16:34:40.882Z,14.05
2022-12-29T16:37:31.633Z,10.75
2022-12-29T16:40:21.049Z,7.75
2022-12-29T16:42:52.075Z,7.30
2022-12-29T16:45:23.228Z,8.90
2022-12-29T16:48:08.335Z,7.18
2022-12-29T16:50:38.206Z,6.15
2022-12-29T16:53:06.317Z,6.28
2022-12-29T16:55:33.638Z,10.40
2022-12-29T16:58:01.255Z,7.70
2022-12-29T17:00:32.775Z,6.57
2022-12-29T17:03:01.692Z,5.97
2022-12-29T17:05:28.942Z,2.30
2022-12-29T17:08:01.607Z,4.40
2022-12-29T17:10:48.438Z,5.47
2022-12-29T17:13:15.186Z,3.75
2022-12-29T17:15:41.976Z,6.90
2022-12-29T17:18:13.879Z,4.63
2022-12-29T17:20:41.136Z,1.95
2022-12-29T17:23:19.948Z,6.15
2022-12-29T17:25:54.387Z,4.38
2022-12-29T17:28:23.894Z,5.82
2022-12-29T17:30:51.352Z,1.50
2022-12-29T17:33:20.261Z,3.65
2022-12-29T17:35:51.905Z,2.72
2022-12-29T17:38:35.439Z,1.13
2022-12-29T17:41:02.245Z,4.38
2022-12-29T17:43:36.362Z,3.55
2022-12-29T17:46:07.489Z,4.88
2022-12-29T17:48:34.416Z,5.68
2022-12-29T17:51:01.353Z,2.78
2022-12-29T17:53:30.885Z,3.15
2022-12-29T17:55:58.049Z,10.45
2022-12-29T17:58:27.982Z,11.50
2022-12-29T18:00:59.465Z,7.32
2022-12-29T18:03:30.806Z,11.57
2022-12-29T18:05:58.529Z,6.95
2022-12-29T18:08:25.363Z,16.23
2022-12-29T18:10:54.472Z,10.30
2022-12-29T18:13:27.202Z,10.80
2022-12-29T18:15:57.281Z,14.98
2022-12-29T18:18:27.191Z,11.00
2022-12-29T18:20:56.609Z,14.57
2022-12-29T18:23:27.368Z,5.63
2022-12-29T18:26:01.671Z,8.80
2022-12-29T18:28:29.230Z,9.63
2022-12-29T18:31:00.237Z,9.52
2022-12-29T18:33:29.222Z,10.82
2022-12-29T18:36:03.610Z,13.68
2022-12-29T18:38:30.804Z,5.68
2022-12-29T18:40:59.841Z,14.05
2022-12-29T18:43:26.682Z,8.43
2022-12-29T18:45:53.389Z,10.95
2022-12-29T18:48:20.970Z,10.93
2022-12-29T18:50:53.172Z,9.20
2022-12-29T18:55:50.005Z,9.23
2022-12-29T18:58:16.763Z,11.90
2022-12-29T19:00:43.626Z,3.70
2022-12-29T19:03:15.720Z,12.75
2022-12-29T19:08:11.652Z,5.97
2022-12-29T19:10:40.002Z,9.48
2022-12-29T19:13:07.047Z,9.45
2022-12-29T19:15:37.902Z,12.25
2022-12-29T19:18:42.423Z,5.93
2022-12-29T19:20:59.066Z,10.02
2022-12-29T19:23:27.311Z,7.53
2022-12-29T19:25:55.360Z,6.13
2022-12-29T19:28:29.627Z,9.43
2022-12-29T19:31:00.856Z,9.98
2022-12-29T19:33:28.282Z,11.40
2022-12-29T19:36:02.646Z,10.13
2022-12-29T19:38:29.723Z,4.38
2022-12-29T19:40:56.945Z,8.98
2022-12-29T19:43:24.066Z,7.72
2022-12-29T19:45:52.344Z,14.35
2022-12-29T19:48:20.917Z,8.60
2022-12-29T19:50:48.242Z,7.55
2022-12-29T19:53:16.005Z,10.18
2022-12-29T19:55:47.636Z,7.15
2022-12-29T19:58:15.341Z,7.25
2022-12-29T20:00:43.528Z,6.47
2022-12-29T20:03:11.179Z,9.90
2022-12-29T20:05:39.314Z,4.75
2022-12-29T20:08:06.263Z,7.63
2022-12-29T20:10:32.998Z,8.07
2022-12-29T20:12:59.836Z,7.80
2022-12-29T20:15:26.582Z,7.35
2022-12-29T20:20:39.972Z,10.10
2022-12-29T20:23:06.700Z,8.05
2022-12-29T20:25:44.660Z,9.10
2022-12-29T20:28:11.881Z,10.63
2022-12-29T20:30:38.615Z,10.23
2022-12-29T20:33:08.307Z,12.13
2022-12-29T20:35:36.466Z,8.88
2022-12-29T20:38:04.584Z,13.13
2022-12-29T20:40:31.393Z,8.80
2022-12-29T20:42:58.115Z,11.98
2022-12-29T20:45:25.106Z,8.40
2022-12-29T20:47:51.938Z,11.23
2022-12-29T20:50:18.740Z,11.32
2022-12-29T20:52:46.652Z,10.70
2022-12-29T20:55:13.505Z,7.20
2022-12-29T20:58:21.490Z,7.20
2022-12-29T21:00:33.199Z,24.52
2022-12-29T21:03:01.109Z,8.55
2022-12-29T21:05:28.716Z,9.98
2022-12-29T21:07:56.174Z,7.88
2022-12-29T21:10:23.407Z,8.57
2022-12-29T21:12:50.464Z,7.35
2022-12-29T21:15:17.641Z,11.18
2022-12-29T21:17:45.061Z,7.68
2022-12-29T21:20:19.675Z,7.80
2022-12-29T21:22:48.284Z,11.63
2022-12-29T21:25:15.438Z,13.05
2022-12-29T21:27:43.944Z,12.30
2022-12-29T21:30:11.873Z,11.75
2022-12-29T21:32:39.503Z,10.90
2022-12-29T21:35:07.933Z,12.23
2022-12-29T21:37:35.886Z,10.35
2022-12-29T21:40:02.900Z,12.18
2022-12-29T21:42:30.399Z,10.65
2022-12-29T21:45:20.398Z,11.73
2022-12-29T21:48:07.092Z,9.27
2022-12-29T21:50:57.392Z,7.78
2022-12-29T21:53:37.431Z,12.70
2022-12-29T21:56:18.503Z,6.22
2022-12-29T21:59:07.364Z,7.00
2022-12-29T22:01:55.603Z,9.38
2022-12-29T22:04:44.274Z,11.07
2022-12-29T22:07:31.290Z,8.88
2022-12-29T22:10:16.446Z,14.05
2022-12-29T22:12:59.363Z,11.25
2022-12-29T22:15:28.892Z,9.48
2022-12-29T22:17:56.231Z,8.57
2022-12-29T22:20:26.571Z,11.00
2022-12-29T22:22:53.418Z,6.43
2022-12-29T22:25:21.087Z,13.52
2022-12-29T22:27:52.949Z,12.68
2022-12-29T22:30:22.601Z,12.68
2022-12-29T22:32:49.323Z,14.85
2022-12-29T22:35:17.154Z,16.70
2022-12-29T22:37:43.924Z,13.10
2022-12-29T22:40:12.227Z,7.95
2022-12-29T22:42:39.510Z,9.77
2022-12-29T22:45:08.178Z,6.95
2022-12-29T22:47:35.149Z,10.60
2022-12-29T22:50:02.263Z,13.73
2022-12-29T22:52:29.123Z,12.45
2022-12-29T22:54:57.388Z,12.55
2022-12-29T22:57:25.932Z,14.70
2022-12-29T22:59:52.699Z,11.52
2022-12-29T23:02:19.593Z,16.05
2022-12-29T23:05:03.047Z,13.13
2022-12-29T23:07:30.541Z,11.93
2022-12-29T23:09:57.299Z,9.60
2022-12-29T23:12:24.132Z,10.27
2022-12-29T23:14:50.876Z,17.67
2022-12-29T23:17:17.675Z,10.57
2022-12-29T23:19:44.393Z,14.07
2022-12-29T23:22:11.156Z,11.07
2022-12-29T23:24:37.891Z,11.32
2022-12-29T23:27:04.643Z,12.18
2022-12-29T23:29:31.442Z,8.07
2022-12-29T23:31:58.219Z,13.27
2022-12-29T23:34:25.060Z,12.98
2022-12-29T23:36:51.945Z,10.07
2022-12-29T23:39:24.269Z,13.23
2022-12-29T23:41:51.986Z,14.63
2022-12-29T23:44:18.776Z,12.95
2022-12-29T23:46:45.698Z,9.80
2022-12-29T23:49:12.549Z,9.18
2022-12-29T23:51:39.380Z,12.25
2022-12-29T23:54:06.224Z,10.48
2022-12-29T23:56:33.259Z,12.98
2022-12-29T23:59:00.061Z,7.55
